sensor_id;sensor_type;location;lat;lon;timestamp;P1;durP1;ratioP1;P2;durP2;ratioP2
81378;SDS011;70830;42.290;-71.354;2023-12-04T00:01:24;0.70;;;0.70;;
81378;SDS011;70830;42.290;-71.354;2023-12-04T00:03:51;0.80;;;0.80;;
81378;SDS011;70830;42.290;-71.354;2023-12-04T00:06:18;0.80;;;0.80;;
81378;SDS011;70830;42.290;-71.354;2023-12-04T00:08:44;0.80;;;0.80;;
81378;SDS011;70830;42.290;-71.354;2023-12-04T00:11:10;0.80;;;0.80;;
81378;SDS011;70830;42.290;-71.354;2023-12-04T00:13:36;0.80;;;0.80;;
81378;SDS011;70830;42.290;-71.354;2023-12-04T00:16:04;0.80;;;0.80;;
81378;SDS011;70830;42.290;-71.354;2023-12-04T00:18:32;0.90;;;0.90;;
81378;SDS011;70830;42.290;-71.354;2023-12-04T00:20:58;0.80;;;0.80;;
81378;SDS011;70830;42.290;-71.354;2023-12-04T00:23:23;0.80;;;0.80;;
81378;SDS011;70830;42.290;-71.354;2023-12-04T00:25:49;0.70;;;0.70;;
81378;SDS011;70830;42.290;-71.354;2023-12-04T00:28:15;0.60;;;0.60;;
81378;SDS011;70830;42.290;-71.354;2023-12-04T00:30:41;0.70;;;0.70;;
81378;SDS011;70830;42.290;-71.354;2023-12-04T00:33:07;0.70;;;0.70;;
81378;SDS011;70830;42.290;-71.354;2023-12-04T00:35:33;0.80;;;0.80;;
81378;SDS011;70830;42.290;-71.354;2023-12-04T00:37:59;0.80;;;0.80;;
81378;SDS011;70830;42.290;-71.354;2023-12-04T00:40:25;0.85;;;0.85;;
81378;SDS011;70830;42.290;-71.354;2023-12-04T00:42:50;1.00;;;1.00;;
81378;SDS011;70830;42.290;-71.354;2023-12-04T00:45:16;0.90;;;0.90;;
81378;SDS011;70830;42.290;-71.354;2023-12-04T00:47:42;0.80;;;0.80;;
81378;SDS011;70830;42.290;-71.354;2023-12-04T00:50:08;0.90;;;0.90;;
81378;SDS011;70830;42.290;-71.354;2023-12-04T00:52:36;0.80;;;0.80;;
81378;SDS011;70830;42.290;-71.354;2023-12-04T00:55:02;0.90;;;0.90;;
81378;SDS011;70830;42.290;-71.354;2023-12-04T00:57:28;1.10;;;1.10;;
81378;SDS011;70830;42.290;-71.354;2023-12-04T00:59:54;1.10;;;1.10;;
81378;SDS011;70830;42.290;-71.354;2023-12-04T01:02:20;1.10;;;1.10;;
81378;SDS011;70830;42.290;-71.354;2023-12-04T01:04:46;1.00;;;1.00;;
81378;SDS011;70830;42.290;-71.354;2023-12-04T01:07:12;1.00;;;1.00;;
81378;SDS011;70830;42.290;-71.354;2023-12-04T01:09:38;0.90;;;0.90;;
81378;SDS011;70830;42.290;-71.354;2023-12-04T01:12:04;1.00;;;1.00;;
81378;SDS011;70830;42.290;-71.354;2023-12-04T01:14:30;1.00;;;1.00;;
81378;SDS011;70830;42.290;-71.354;2023-12-04T01:16:56;0.80;;;0.80;;
81378;SDS011;70830;42.290;-71.354;2023-12-04T01:19:22;0.90;;;0.90;;
81378;SDS011;70830;42.290;-71.354;2023-12-04T01:21:48;0.80;;;0.80;;
81378;SDS011;70830;42.290;-71.354;2023-12-04T01:24:14;0.90;;;0.90;;
81378;SDS011;70830;42.290;-71.354;2023-12-04T01:26:41;0.80;;;0.80;;
81378;SDS011;70830;42.290;-71.354;2023-12-04T01:29:07;1.00;;;1.00;;
81378;SDS011;70830;42.290;-71.354;2023-12-04T01:31:33;0.90;;;0.90;;
81378;SDS011;70830;42.290;-71.354;2023-12-04T01:33:59;1.20;;;1.20;;
81378;SDS011;70830;42.290;-71.354;2023-12-04T01:36:26;1.20;;;1.20;;
81378;SDS011;70830;42.290;-71.354;2023-12-04T01:38:52;1.10;;;1.10;;
81378;SDS011;70830;42.290;-71.354;2023-12-04T01:41:18;1.13;;;1.13;;
81378;SDS011;70830;42.290;-71.354;2023-12-04T01:43:44;1.10;;;1.10;;
81378;SDS011;70830;42.290;-71.354;2023-12-04T01:46:11;1.20;;;1.20;;
81378;SDS011;70830;42.290;-71.354;2023-12-04T01:48:38;1.17;;;1.17;;
81378;SDS011;70830;42.290;-71.354;2023-12-04T01:51:05;1.20;;;1.20;;
81378;SDS011;70830;42.290;-71.354;2023-12-04T01:53:36;1.20;;;1.20;;
81378;SDS011;70830;42.290;-71.354;2023-12-04T01:56:03;1.15;;;1.15;;
81378;SDS011;70830;42.290;-71.354;2023-12-04T01:58:31;1.10;;;1.10;;
81378;SDS011;70830;42.290;-71.354;2023-12-04T02:00:57;1.20;;;1.20;;
81378;SDS011;70830;42.290;-71.354;2023-12-04T02:03:23;1.20;;;1.20;;
81378;SDS011;70830;42.290;-71.354;2023-12-04T02:05:49;1.17;;;1.17;;
81378;SDS011;70830;42.290;-71.354;2023-12-04T02:08:17;1.00;;;1.00;;
81378;SDS011;70830;42.290;-71.354;2023-12-04T02:10:44;1.10;;;1.10;;
81378;SDS011;70830;42.290;-71.354;2023-12-04T02:13:10;1.10;;;1.10;;
81378;SDS011;70830;42.290;-71.354;2023-12-04T02:15:36;1.10;;;1.10;;
81378;SDS011;70830;42.290;-71.354;2023-12-04T02:18:02;1.10;;;1.10;;
81378;SDS011;70830;42.290;-71.354;2023-12-04T02:20:32;1.10;;;1.10;;
81378;SDS011;70830;42.290;-71.354;2023-12-04T02:23:02;1.10;;;1.10;;
81378;SDS011;70830;42.290;-71.354;2023-12-04T02:25:29;1.10;;;1.10;;
81378;SDS011;70830;42.290;-71.354;2023-12-04T02:27:56;1.13;;;1.13;;
81378;SDS011;70830;42.290;-71.354;2023-12-04T02:30:26;1.10;;;1.10;;
81378;SDS011;70830;42.290;-71.354;2023-12-04T02:32:55;1.10;;;1.10;;
81378;SDS011;70830;42.290;-71.354;2023-12-04T02:35:24;1.20;;;1.20;;
81378;SDS011;70830;42.290;-71.354;2023-12-04T02:37:55;1.30;;;1.30;;
81378;SDS011;70830;42.290;-71.354;2023-12-04T02:40:23;1.10;;;1.10;;
81378;SDS011;70830;42.290;-71.354;2023-12-04T02:42:50;1.10;;;1.10;;
81378;SDS011;70830;42.290;-71.354;2023-12-04T02:45:16;1.17;;;1.17;;
81378;SDS011;70830;42.290;-71.354;2023-12-04T02:47:42;1.10;;;1.10;;
81378;SDS011;70830;42.290;-71.354;2023-12-04T02:50:08;1.20;;;1.20;;
81378;SDS011;70830;42.290;-71.354;2023-12-04T02:52:34;1.30;;;1.30;;
81378;SDS011;70830;42.290;-71.354;2023-12-04T02:55:00;1.25;;;1.25;;
81378;SDS011;70830;42.290;-71.354;2023-12-04T02:57:26;1.10;;;1.10;;
81378;SDS011;70830;42.290;-71.354;2023-12-04T02:59:52;1.20;;;1.20;;
81378;SDS011;70830;42.290;-71.354;2023-12-04T03:02:18;1.20;;;1.20;;
81378;SDS011;70830;42.290;-71.354;2023-12-04T03:04:45;1.10;;;1.10;;
81378;SDS011;70830;42.290;-71.354;2023-12-04T03:07:11;1.00;;;1.00;;
81378;SDS011;70830;42.290;-71.354;2023-12-04T03:09:37;1.00;;;1.00;;
81378;SDS011;70830;42.290;-71.354;2023-12-04T03:12:03;1.00;;;1.00;;
81378;SDS011;70830;42.290;-71.354;2023-12-04T03:14:29;0.90;;;0.90;;
81378;SDS011;70830;42.290;-71.354;2023-12-04T03:16:55;1.00;;;1.00;;
81378;SDS011;70830;42.290;-71.354;2023-12-04T03:19:21;1.00;;;1.00;;
81378;SDS011;70830;42.290;-71.354;2023-12-04T03:21:47;0.90;;;0.90;;
81378;SDS011;70830;42.290;-71.354;2023-12-04T03:24:12;1.10;;;1.10;;
81378;SDS011;70830;42.290;-71.354;2023-12-04T03:26:39;1.10;;;1.10;;
81378;SDS011;70830;42.290;-71.354;2023-12-04T03:29:05;1.00;;;1.00;;
81378;SDS011;70830;42.290;-71.354;2023-12-04T03:31:31;1.00;;;1.00;;
81378;SDS011;70830;42.290;-71.354;2023-12-04T03:33:59;0.90;;;0.90;;
81378;SDS011;70830;42.290;-71.354;2023-12-04T03:36:25;1.00;;;1.00;;
81378;SDS011;70830;42.290;-71.354;2023-12-04T03:38:51;1.20;;;1.20;;
81378;SDS011;70830;42.290;-71.354;2023-12-04T03:41:17;1.20;;;1.20;;
81378;SDS011;70830;42.290;-71.354;2023-12-04T03:43:42;1.20;;;1.20;;
81378;SDS011;70830;42.290;-71.354;2023-12-04T03:46:08;1.05;;;1.05;;
81378;SDS011;70830;42.290;-71.354;2023-12-04T03:48:34;0.90;;;0.90;;
81378;SDS011;70830;42.290;-71.354;2023-12-04T03:51:00;1.00;;;1.00;;
81378;SDS011;70830;42.290;-71.354;2023-12-04T03:53:27;0.90;;;0.90;;
81378;SDS011;70830;42.290;-71.354;2023-12-04T03:55:53;0.90;;;0.90;;
81378;SDS011;70830;42.290;-71.354;2023-12-04T03:58:19;1.00;;;1.00;;
81378;SDS011;70830;42.290;-71.354;2023-12-04T04:00:44;1.00;;;1.00;;
81378;SDS011;70830;42.290;-71.354;2023-12-04T04:03:10;0.95;;;0.95;;
81378;SDS011;70830;42.290;-71.354;2023-12-04T04:05:36;1.00;;;1.00;;
81378;SDS011;70830;42.290;-71.354;2023-12-04T04:08:02;0.90;;;0.90;;
81378;SDS011;70830;42.290;-71.354;2023-12-04T04:10:30;0.98;;;0.98;;
81378;SDS011;70830;42.290;-71.354;2023-12-04T04:12:57;1.00;;;1.00;;
81378;SDS011;70830;42.290;-71.354;2023-12-04T04:15:23;0.93;;;0.93;;
81378;SDS011;70830;42.290;-71.354;2023-12-04T04:17:49;1.00;;;1.00;;
81378;SDS011;70830;42.290;-71.354;2023-12-04T04:20:15;1.00;;;1.00;;
81378;SDS011;70830;42.290;-71.354;2023-12-04T04:22:40;1.10;;;1.10;;
81378;SDS011;70830;42.290;-71.354;2023-12-04T04:25:07;1.10;;;1.10;;
81378;SDS011;70830;42.290;-71.354;2023-12-04T04:27:33;1.00;;;1.00;;
81378;SDS011;70830;42.290;-71.354;2023-12-04T04:29:59;1.00;;;1.00;;
81378;SDS011;70830;42.290;-71.354;2023-12-04T04:32:25;1.10;;;1.10;;
81378;SDS011;70830;42.290;-71.354;2023-12-04T04:34:51;1.00;;;1.00;;
81378;SDS011;70830;42.290;-71.354;2023-12-04T04:37:17;1.00;;;1.00;;
81378;SDS011;70830;42.290;-71.354;2023-12-04T04:39:42;1.15;;;1.15;;
81378;SDS011;70830;42.290;-71.354;2023-12-04T04:42:08;1.20;;;1.20;;
81378;SDS011;70830;42.290;-71.354;2023-12-04T04:44:34;1.20;;;1.20;;
81378;SDS011;70830;42.290;-71.354;2023-12-04T04:47:00;1.10;;;1.10;;
81378;SDS011;70830;42.290;-71.354;2023-12-04T04:49:26;1.20;;;1.20;;
81378;SDS011;70830;42.290;-71.354;2023-12-04T04:51:52;1.20;;;1.20;;
81378;SDS011;70830;42.290;-71.354;2023-12-04T04:54:17;1.30;;;1.30;;
81378;SDS011;70830;42.290;-71.354;2023-12-04T04:56:43;1.33;;;1.33;;
81378;SDS011;70830;42.290;-71.354;2023-12-04T04:59:09;1.30;;;1.30;;
81378;SDS011;70830;42.290;-71.354;2023-12-04T05:01:35;1.40;;;1.40;;
81378;SDS011;70830;42.290;-71.354;2023-12-04T05:04:04;1.42;;;1.42;;
81378;SDS011;70830;42.290;-71.354;2023-12-04T05:06:30;1.30;;;1.30;;
81378;SDS011;70830;42.290;-71.354;2023-12-04T05:08:56;1.30;;;1.30;;
81378;SDS011;70830;42.290;-71.354;2023-12-04T05:11:22;1.40;;;1.40;;
81378;SDS011;70830;42.290;-71.354;2023-12-04T05:13:49;1.40;;;1.40;;
81378;SDS011;70830;42.290;-71.354;2023-12-04T05:16:14;1.40;;;1.40;;
81378;SDS011;70830;42.290;-71.354;2023-12-04T05:18:40;1.40;;;1.40;;
81378;SDS011;70830;42.290;-71.354;2023-12-04T05:21:10;1.30;;;1.30;;
81378;SDS011;70830;42.290;-71.354;2023-12-04T05:23:36;1.30;;;1.30;;
81378;SDS011;70830;42.290;-71.354;2023-12-04T05:26:03;1.60;;;1.50;;
81378;SDS011;70830;42.290;-71.354;2023-12-04T05:28:30;1.40;;;1.40;;
81378;SDS011;70830;42.290;-71.354;2023-12-04T05:30:56;1.40;;;1.40;;
81378;SDS011;70830;42.290;-71.354;2023-12-04T05:33:22;1.30;;;1.30;;
81378;SDS011;70830;42.290;-71.354;2023-12-04T05:35:48;1.40;;;1.40;;
81378;SDS011;70830;42.290;-71.354;2023-12-04T05:38:16;1.45;;;1.45;;
81378;SDS011;70830;42.290;-71.354;2023-12-04T05:40:42;1.40;;;1.40;;
81378;SDS011;70830;42.290;-71.354;2023-12-04T05:43:08;1.60;;;1.50;;
81378;SDS011;70830;42.290;-71.354;2023-12-04T05:45:34;1.40;;;1.40;;
81378;SDS011;70830;42.290;-71.354;2023-12-04T05:47:59;1.40;;;1.40;;
81378;SDS011;70830;42.290;-71.354;2023-12-04T05:50:25;1.38;;;1.38;;
81378;SDS011;70830;42.290;-71.354;2023-12-04T05:52:51;1.40;;;1.40;;
81378;SDS011;70830;42.290;-71.354;2023-12-04T05:55:17;1.40;;;1.40;;
81378;SDS011;70830;42.290;-71.354;2023-12-04T05:57:44;1.45;;;1.45;;
81378;SDS011;70830;42.290;-71.354;2023-12-04T06:00:10;1.50;;;1.50;;
81378;SDS011;70830;42.290;-71.354;2023-12-04T06:02:38;1.38;;;1.38;;
81378;SDS011;70830;42.290;-71.354;2023-12-04T06:05:08;1.40;;;1.40;;
81378;SDS011;70830;42.290;-71.354;2023-12-04T06:07:34;1.60;;;1.50;;
81378;SDS011;70830;42.290;-71.354;2023-12-04T06:10:01;1.40;;;1.40;;
81378;SDS011;70830;42.290;-71.354;2023-12-04T06:12:29;1.30;;;1.30;;
81378;SDS011;70830;42.290;-71.354;2023-12-04T06:14:56;1.58;;;1.50;;
81378;SDS011;70830;42.290;-71.354;2023-12-04T06:17:23;1.40;;;1.40;;
81378;SDS011;70830;42.290;-71.354;2023-12-04T06:19:49;1.40;;;1.40;;
81378;SDS011;70830;42.290;-71.354;2023-12-04T06:22:15;1.40;;;1.40;;
81378;SDS011;70830;42.290;-71.354;2023-12-04T06:24:43;1.52;;;1.50;;
81378;SDS011;70830;42.290;-71.354;2023-12-04T06:27:11;1.77;;;1.70;;
81378;SDS011;70830;42.290;-71.354;2023-12-04T06:29:43;1.60;;;1.50;;
81378;SDS011;70830;42.290;-71.354;2023-12-04T06:32:10;1.40;;;1.40;;
81378;SDS011;70830;42.290;-71.354;2023-12-04T06:34:37;1.48;;;1.48;;
81378;SDS011;70830;42.290;-71.354;2023-12-04T06:37:03;1.40;;;1.40;;
81378;SDS011;70830;42.290;-71.354;2023-12-04T06:39:34;3.47;;;2.70;;
81378;SDS011;70830;42.290;-71.354;2023-12-04T06:42:02;1.42;;;1.42;;
81378;SDS011;70830;42.290;-71.354;2023-12-04T06:44:29;1.20;;;1.20;;
81378;SDS011;70830;42.290;-71.354;2023-12-04T06:46:55;1.20;;;1.20;;
81378;SDS011;70830;42.290;-71.354;2023-12-04T06:49:25;1.20;;;1.20;;
81378;SDS011;70830;42.290;-71.354;2023-12-04T06:51:55;1.30;;;1.30;;
81378;SDS011;70830;42.290;-71.354;2023-12-04T06:54:21;1.50;;;1.50;;
81378;SDS011;70830;42.290;-71.354;2023-12-04T06:56:47;1.58;;;1.50;;
81378;SDS011;70830;42.290;-71.354;2023-12-04T06:59:13;1.58;;;1.50;;
81378;SDS011;70830;42.290;-71.354;2023-12-04T07:01:39;1.60;;;1.50;;
81378;SDS011;70830;42.290;-71.354;2023-12-04T07:04:05;1.40;;;1.40;;
81378;SDS011;70830;42.290;-71.354;2023-12-04T07:06:40;1.70;;;1.60;;
81378;SDS011;70830;42.290;-71.354;2023-12-04T07:09:06;1.70;;;1.60;;
81378;SDS011;70830;42.290;-71.354;2023-12-04T07:11:35;1.70;;;1.60;;
81378;SDS011;70830;42.290;-71.354;2023-12-04T07:14:01;1.58;;;1.50;;
81378;SDS011;70830;42.290;-71.354;2023-12-04T07:16:27;1.60;;;1.50;;
81378;SDS011;70830;42.290;-71.354;2023-12-04T07:18:53;1.80;;;1.70;;
81378;SDS011;70830;42.290;-71.354;2023-12-04T07:21:19;1.80;;;1.70;;
81378;SDS011;70830;42.290;-71.354;2023-12-04T07:23:45;1.80;;;1.70;;
81378;SDS011;70830;42.290;-71.354;2023-12-04T07:26:11;1.70;;;1.60;;
81378;SDS011;70830;42.290;-71.354;2023-12-04T07:28:37;1.70;;;1.60;;
81378;SDS011;70830;42.290;-71.354;2023-12-04T07:31:03;1.70;;;1.60;;
81378;SDS011;70830;42.290;-71.354;2023-12-04T07:33:29;1.80;;;1.70;;
81378;SDS011;70830;42.290;-71.354;2023-12-04T07:35:55;1.90;;;1.80;;
81378;SDS011;70830;42.290;-71.354;2023-12-04T07:38:21;1.80;;;1.70;;
81378;SDS011;70830;42.290;-71.354;2023-12-04T07:40:47;1.80;;;1.70;;
81378;SDS011;70830;42.290;-71.354;2023-12-04T07:43:13;1.80;;;1.70;;
81378;SDS011;70830;42.290;-71.354;2023-12-04T07:45:43;1.80;;;1.70;;
81378;SDS011;70830;42.290;-71.354;2023-12-04T07:48:08;1.73;;;1.63;;
81378;SDS011;70830;42.290;-71.354;2023-12-04T07:50:34;1.80;;;1.70;;
81378;SDS011;70830;42.290;-71.354;2023-12-04T07:53:02;1.90;;;1.80;;
81378;SDS011;70830;42.290;-71.354;2023-12-04T07:55:29;1.80;;;1.70;;
81378;SDS011;70830;42.290;-71.354;2023-12-04T07:57:54;1.85;;;1.75;;
81378;SDS011;70830;42.290;-71.354;2023-12-04T08:00:21;1.70;;;1.60;;
81378;SDS011;70830;42.290;-71.354;2023-12-04T08:02:48;1.77;;;1.67;;
81378;SDS011;70830;42.290;-71.354;2023-12-04T08:05:14;1.80;;;1.70;;
81378;SDS011;70830;42.290;-71.354;2023-12-04T08:07:40;1.80;;;1.70;;
81378;SDS011;70830;42.290;-71.354;2023-12-04T08:10:06;1.80;;;1.70;;
81378;SDS011;70830;42.290;-71.354;2023-12-04T08:12:32;1.73;;;1.63;;
81378;SDS011;70830;42.290;-71.354;2023-12-04T08:14:59;1.80;;;1.70;;
81378;SDS011;70830;42.290;-71.354;2023-12-04T08:17:26;1.90;;;1.80;;
81378;SDS011;70830;42.290;-71.354;2023-12-04T08:19:52;1.90;;;1.80;;
81378;SDS011;70830;42.290;-71.354;2023-12-04T08:22:19;1.80;;;1.70;;
81378;SDS011;70830;42.290;-71.354;2023-12-04T08:24:45;1.80;;;1.70;;
81378;SDS011;70830;42.290;-71.354;2023-12-04T08:27:11;1.90;;;1.80;;
81378;SDS011;70830;42.290;-71.354;2023-12-04T08:29:39;1.80;;;1.70;;
81378;SDS011;70830;42.290;-71.354;2023-12-04T08:32:05;1.70;;;1.60;;
81378;SDS011;70830;42.290;-71.354;2023-12-04T08:34:32;1.70;;;1.60;;
81378;SDS011;70830;42.290;-71.354;2023-12-04T08:36:57;1.80;;;1.70;;
81378;SDS011;70830;42.290;-71.354;2023-12-04T08:39:23;1.80;;;1.70;;
81378;SDS011;70830;42.290;-71.354;2023-12-04T08:41:49;1.90;;;1.80;;
81378;SDS011;70830;42.290;-71.354;2023-12-04T08:44:15;1.80;;;1.70;;
81378;SDS011;70830;42.290;-71.354;2023-12-04T08:46:42;1.90;;;1.80;;
81378;SDS011;70830;42.290;-71.354;2023-12-04T08:49:09;1.80;;;1.70;;
81378;SDS011;70830;42.290;-71.354;2023-12-04T08:51:35;1.73;;;1.63;;
81378;SDS011;70830;42.290;-71.354;2023-12-04T08:54:01;1.70;;;1.60;;
81378;SDS011;70830;42.290;-71.354;2023-12-04T08:56:28;1.70;;;1.60;;
81378;SDS011;70830;42.290;-71.354;2023-12-04T08:58:54;1.80;;;1.70;;
81378;SDS011;70830;42.290;-71.354;2023-12-04T09:01:20;1.90;;;1.80;;
81378;SDS011;70830;42.290;-71.354;2023-12-04T09:03:46;1.80;;;1.70;;
81378;SDS011;70830;42.290;-71.354;2023-12-04T09:06:12;1.73;;;1.63;;
81378;SDS011;70830;42.290;-71.354;2023-12-04T09:08:39;1.80;;;1.70;;
81378;SDS011;70830;42.290;-71.354;2023-12-04T09:11:05;1.80;;;1.70;;
81378;SDS011;70830;42.290;-71.354;2023-12-04T09:13:31;1.80;;;1.70;;
81378;SDS011;70830;42.290;-71.354;2023-12-04T09:15:59;1.73;;;1.63;;
81378;SDS011;70830;42.290;-71.354;2023-12-04T09:18:25;1.90;;;1.80;;
81378;SDS011;70830;42.290;-71.354;2023-12-04T09:20:51;1.80;;;1.70;;
81378;SDS011;70830;42.290;-71.354;2023-12-04T09:23:17;1.80;;;1.70;;
81378;SDS011;70830;42.290;-71.354;2023-12-04T09:25:42;1.80;;;1.70;;
81378;SDS011;70830;42.290;-71.354;2023-12-04T09:28:08;1.90;;;1.80;;
81378;SDS011;70830;42.290;-71.354;2023-12-04T09:30:35;1.73;;;1.63;;
81378;SDS011;70830;42.290;-71.354;2023-12-04T09:33:02;1.80;;;1.70;;
81378;SDS011;70830;42.290;-71.354;2023-12-04T09:35:28;1.90;;;1.80;;
81378;SDS011;70830;42.290;-71.354;2023-12-04T09:37:54;1.95;;;1.85;;
81378;SDS011;70830;42.290;-71.354;2023-12-04T09:40:20;1.70;;;1.60;;
81378;SDS011;70830;42.290;-71.354;2023-12-04T09:42:46;1.90;;;1.80;;
81378;SDS011;70830;42.290;-71.354;2023-12-04T09:45:12;1.80;;;1.70;;
81378;SDS011;70830;42.290;-71.354;2023-12-04T09:47:39;1.80;;;1.70;;
81378;SDS011;70830;42.290;-71.354;2023-12-04T09:50:05;1.75;;;1.65;;
81378;SDS011;70830;42.290;-71.354;2023-12-04T09:52:33;1.80;;;1.70;;
81378;SDS011;70830;42.290;-71.354;2023-12-04T09:55:00;1.70;;;1.60;;
81378;SDS011;70830;42.290;-71.354;2023-12-04T09:57:26;1.90;;;1.80;;
81378;SDS011;70830;42.290;-71.354;2023-12-04T09:59:53;1.90;;;1.80;;
81378;SDS011;70830;42.290;-71.354;2023-12-04T10:02:19;1.80;;;1.70;;
81378;SDS011;70830;42.290;-71.354;2023-12-04T10:04:46;1.80;;;1.70;;
81378;SDS011;70830;42.290;-71.354;2023-12-04T10:07:13;1.80;;;1.70;;
81378;SDS011;70830;42.290;-71.354;2023-12-04T10:09:39;2.00;;;1.90;;
81378;SDS011;70830;42.290;-71.354;2023-12-04T10:12:05;1.80;;;1.70;;
81378;SDS011;70830;42.290;-71.354;2023-12-04T10:14:31;1.80;;;1.70;;
81378;SDS011;70830;42.290;-71.354;2023-12-04T10:16:57;1.70;;;1.60;;
81378;SDS011;70830;42.290;-71.354;2023-12-04T10:19:25;1.90;;;1.80;;
81378;SDS011;70830;42.290;-71.354;2023-12-04T10:21:54;1.90;;;1.80;;
81378;SDS011;70830;42.290;-71.354;2023-12-04T10:24:28;1.73;;;1.63;;
81378;SDS011;70830;42.290;-71.354;2023-12-04T10:26:58;1.80;;;1.70;;
81378;SDS011;70830;42.290;-71.354;2023-12-04T10:29:26;1.70;;;1.60;;
81378;SDS011;70830;42.290;-71.354;2023-12-04T10:31:55;1.90;;;1.80;;
81378;SDS011;70830;42.290;-71.354;2023-12-04T10:34:25;1.80;;;1.70;;
81378;SDS011;70830;42.290;-71.354;2023-12-04T10:36:51;1.95;;;1.85;;
81378;SDS011;70830;42.290;-71.354;2023-12-04T10:39:17;2.00;;;1.90;;
81378;SDS011;70830;42.290;-71.354;2023-12-04T10:41:44;2.00;;;1.90;;
81378;SDS011;70830;42.290;-71.354;2023-12-04T10:44:14;1.90;;;1.80;;
81378;SDS011;70830;42.290;-71.354;2023-12-04T10:46:43;1.90;;;1.80;;
81378;SDS011;70830;42.290;-71.354;2023-12-04T10:49:12;2.00;;;1.90;;
81378;SDS011;70830;42.290;-71.354;2023-12-04T10:51:39;2.08;;;1.98;;
81378;SDS011;70830;42.290;-71.354;2023-12-04T10:54:05;1.92;;;1.83;;
81378;SDS011;70830;42.290;-71.354;2023-12-04T10:56:37;2.00;;;1.90;;
81378;SDS011;70830;42.290;-71.354;2023-12-04T10:59:10;1.80;;;1.70;;
81378;SDS011;70830;42.290;-71.354;2023-12-04T11:01:41;1.92;;;1.83;;
81378;SDS011;70830;42.290;-71.354;2023-12-04T11:04:11;1.90;;;1.80;;
81378;SDS011;70830;42.290;-71.354;2023-12-04T11:06:42;1.98;;;1.88;;
81378;SDS011;70830;42.290;-71.354;2023-12-04T11:09:11;1.90;;;1.80;;
81378;SDS011;70830;42.290;-71.354;2023-12-04T11:11:39;1.80;;;1.70;;
81378;SDS011;70830;42.290;-71.354;2023-12-04T11:14:09;1.90;;;1.80;;
81378;SDS011;70830;42.290;-71.354;2023-12-04T11:16:44;1.85;;;1.75;;
81378;SDS011;70830;42.290;-71.354;2023-12-04T11:22:23;2.00;;;1.90;;
81378;SDS011;70830;42.290;-71.354;2023-12-04T11:24:51;1.90;;;1.80;;
81378;SDS011;70830;42.290;-71.354;2023-12-04T11:27:17;1.90;;;1.80;;
81378;SDS011;70830;42.290;-71.354;2023-12-04T11:29:47;2.00;;;1.90;;
81378;SDS011;70830;42.290;-71.354;2023-12-04T11:32:14;1.80;;;1.70;;
81378;SDS011;70830;42.290;-71.354;2023-12-04T11:35:06;1.80;;;1.70;;
81378;SDS011;70830;42.290;-71.354;2023-12-04T11:37:37;1.90;;;1.80;;
81378;SDS011;70830;42.290;-71.354;2023-12-04T11:40:03;1.90;;;1.80;;
81378;SDS011;70830;42.290;-71.354;2023-12-04T11:42:30;1.80;;;1.70;;
81378;SDS011;70830;42.290;-71.354;2023-12-04T11:44:56;1.90;;;1.80;;
81378;SDS011;70830;42.290;-71.354;2023-12-04T11:47:27;1.80;;;1.70;;
81378;SDS011;70830;42.290;-71.354;2023-12-04T11:49:53;1.90;;;1.80;;
81378;SDS011;70830;42.290;-71.354;2023-12-04T11:52:31;1.90;;;1.80;;
81378;SDS011;70830;42.290;-71.354;2023-12-04T11:55:00;1.95;;;1.85;;
81378;SDS011;70830;42.290;-71.354;2023-12-04T11:57:38;1.90;;;1.80;;
81378;SDS011;70830;42.290;-71.354;2023-12-04T12:00:08;1.90;;;1.80;;
81378;SDS011;70830;42.290;-71.354;2023-12-04T12:02:50;2.00;;;1.90;;
81378;SDS011;70830;42.290;-71.354;2023-12-04T12:05:31;2.17;;;2.08;;
81378;SDS011;70830;42.290;-71.354;2023-12-04T12:08:02;2.00;;;1.90;;
81378;SDS011;70830;42.290;-71.354;2023-12-04T12:10:28;2.58;;;2.47;;
81378;SDS011;70830;42.290;-71.354;2023-12-04T12:12:55;2.00;;;1.90;;
81378;SDS011;70830;42.290;-71.354;2023-12-04T12:15:22;1.90;;;1.80;;
81378;SDS011;70830;42.290;-71.354;2023-12-04T12:17:49;1.90;;;1.80;;
81378;SDS011;70830;42.290;-71.354;2023-12-04T12:20:18;2.00;;;1.90;;
81378;SDS011;70830;42.290;-71.354;2023-12-04T12:22:45;2.00;;;1.90;;
81378;SDS011;70830;42.290;-71.354;2023-12-04T12:25:13;1.90;;;1.80;;
81378;SDS011;70830;42.290;-71.354;2023-12-04T12:27:40;2.15;;;2.05;;
81378;SDS011;70830;42.290;-71.354;2023-12-04T12:30:06;1.90;;;1.80;;
81378;SDS011;70830;42.290;-71.354;2023-12-04T12:32:34;1.90;;;1.80;;
81378;SDS011;70830;42.290;-71.354;2023-12-04T12:35:03;1.90;;;1.80;;
81378;SDS011;70830;42.290;-71.354;2023-12-04T12:37:29;1.70;;;1.60;;
81378;SDS011;70830;42.290;-71.354;2023-12-04T12:39:56;1.77;;;1.67;;
81378;SDS011;70830;42.290;-71.354;2023-12-04T12:42:29;1.90;;;1.80;;
81378;SDS011;70830;42.290;-71.354;2023-12-04T12:44:55;0.28;;;0.28;;
81378;SDS011;70830;42.290;-71.354;2023-12-04T12:47:24;0.00;;;0.00;;
81378;SDS011;70830;42.290;-71.354;2023-12-04T12:49:51;0.00;;;0.00;;
81378;SDS011;70830;42.290;-71.354;2023-12-04T12:52:18;0.00;;;0.00;;
81378;SDS011;70830;42.290;-71.354;2023-12-04T12:54:45;0.00;;;0.00;;
81378;SDS011;70830;42.290;-71.354;2023-12-04T12:57:11;0.00;;;0.00;;
81378;SDS011;70830;42.290;-71.354;2023-12-04T12:59:41;0.00;;;0.00;;
81378;SDS011;70830;42.290;-71.354;2023-12-04T13:02:07;0.00;;;0.00;;
81378;SDS011;70830;42.290;-71.354;2023-12-04T13:07:08;0.00;;;0.00;;
81378;SDS011;70830;42.290;-71.354;2023-12-04T13:09:35;0.00;;;0.00;;
81378;SDS011;70830;42.290;-71.354;2023-12-04T13:12:02;0.00;;;0.00;;
81378;SDS011;70830;42.290;-71.354;2023-12-04T13:14:29;0.00;;;0.00;;
81378;SDS011;70830;42.290;-71.354;2023-12-04T13:16:55;0.00;;;0.00;;
81378;SDS011;70830;42.290;-71.354;2023-12-04T13:19:22;0.00;;;0.00;;
81378;SDS011;70830;42.290;-71.354;2023-12-04T13:21:49;0.00;;;0.00;;
81378;SDS011;70830;42.290;-71.354;2023-12-04T13:24:15;0.00;;;0.00;;
81378;SDS011;70830;42.290;-71.354;2023-12-04T13:26:43;0.00;;;0.00;;
81378;SDS011;70830;42.290;-71.354;2023-12-04T13:29:10;0.20;;;0.20;;
81378;SDS011;70830;42.290;-71.354;2023-12-04T13:31:36;0.00;;;0.00;;
81378;SDS011;70830;42.290;-71.354;2023-12-04T13:34:02;0.00;;;0.00;;
81378;SDS011;70830;42.290;-71.354;2023-12-04T13:36:32;0.00;;;0.00;;
81378;SDS011;70830;42.290;-71.354;2023-12-04T13:38:59;0.00;;;0.00;;
81378;SDS011;70830;42.290;-71.354;2023-12-04T13:41:25;0.00;;;0.00;;
81378;SDS011;70830;42.290;-71.354;2023-12-04T13:44:09;0.00;;;0.00;;
81378;SDS011;70830;42.290;-71.354;2023-12-04T13:46:39;0.00;;;0.00;;
81378;SDS011;70830;42.290;-71.354;2023-12-04T13:49:05;1.40;;;1.40;;
81378;SDS011;70830;42.290;-71.354;2023-12-04T13:51:33;1.80;;;1.70;;
81378;SDS011;70830;42.290;-71.354;2023-12-04T13:54:05;2.70;;;2.60;;
81378;SDS011;70830;42.290;-71.354;2023-12-04T13:56:44;0.00;;;0.00;;
81378;SDS011;70830;42.290;-71.354;2023-12-04T13:59:18;0.10;;;0.10;;
81378;SDS011;70830;42.290;-71.354;2023-12-04T14:01:48;0.00;;;0.00;;
81378;SDS011;70830;42.290;-71.354;2023-12-04T14:04:19;0.00;;;0.00;;
81378;SDS011;70830;42.290;-71.354;2023-12-04T14:06:45;0.00;;;0.00;;
81378;SDS011;70830;42.290;-71.354;2023-12-04T14:09:11;0.00;;;0.00;;
81378;SDS011;70830;42.290;-71.354;2023-12-04T14:11:43;0.00;;;0.00;;
81378;SDS011;70830;42.290;-71.354;2023-12-04T14:14:09;0.00;;;0.00;;
81378;SDS011;70830;42.290;-71.354;2023-12-04T14:16:36;0.00;;;0.00;;
81378;SDS011;70830;42.290;-71.354;2023-12-04T14:19:03;0.00;;;0.00;;
81378;SDS011;70830;42.290;-71.354;2023-12-04T14:21:36;0.00;;;0.00;;
81378;SDS011;70830;42.290;-71.354;2023-12-04T14:24:01;0.00;;;0.00;;
81378;SDS011;70830;42.290;-71.354;2023-12-04T14:26:27;0.00;;;0.00;;